Time;durP1;ratioP1;P1;durP2;ratioP2;P2;SDS_P1;SDS_P2;PMS_P1;PMS_P2;Temp;Humidity;BMP_temperature;BMP_pressure;BME280_temperature;BME280_humidity;BME280_pressure;Samples;Min_cycle;Max_cycle;Signal;HPM_P1;HPM_P2
2024/03/04 00:02:25;;;;;;;68.53;37.00;;;10.00;99.90;;;;;;814122;173;26452;-79
2024/03/04 00:04:52;;;;;;;75.73;40.53;;;10.00;99.90;;;;;;813775;176;26429;-79
2024/03/04 00:07:18;;;;;;;68.50;38.77;;;10.00;99.90;;;;;;816199;174;26565;-77
2024/03/04 00:09:45;;;;;;;64.33;34.80;;;10.00;99.90;;;;;;830214;169;26399;-80
2024/03/04 00:12:11;;;;;;;69.40;38.20;;;10.00;99.90;;;;;;830897;173;26389;-79
2024/03/04 00:14:38;;;;;;;69.93;38.30;;;10.00;99.90;;;;;;830210;173;26399;-79
2024/03/04 00:17:06;;;;;;;63.27;35.87;;;10.00;99.90;;;;;;829828;173;26916;-77
2024/03/04 00:19:32;;;;;;;58.70;32.20;;;10.00;99.90;;;;;;829080;172;26421;-78
2024/03/04 00:21:58;;;;;;;66.53;35.37;;;9.90;99.90;;;;;;817185;174;26539;-78
2024/03/04 00:24:24;;;;;;;67.83;36.70;;;9.80;99.90;;;;;;820735;174;26435;-78
2024/03/04 00:26:51;;;;;;;64.40;34.83;;;9.90;99.90;;;;;;830373;172;26382;-78
2024/03/04 00:29:18;;;;;;;64.13;35.53;;;9.90;99.90;;;;;;815473;175;26444;-78
2024/03/04 00:31:45;;;;;;;62.43;35.27;;;9.90;99.90;;;;;;818862;174;26402;-78
2024/03/04 00:34:12;;;;;;;63.53;35.00;;;9.90;99.90;;;;;;822972;174;26967;-78
2024/03/04 00:36:37;;;;;;;60.97;33.60;;;9.80;99.90;;;;;;821109;172;26416;-79
2024/03/04 00:39:04;;;;;;;69.10;36.07;;;9.90;99.90;;;;;;818646;174;28044;-78
2024/03/04 00:41:31;;;;;;;66.50;36.43;;;9.80;99.90;;;;;;820035;174;26440;-78
2024/03/04 00:43:57;;;;;;;56.13;27.50;;;9.90;99.90;;;;;;830078;173;26388;-78
2024/03/04 00:46:24;;;;;;;60.97;31.30;;;9.80;99.90;;;;;;829833;173;26380;-78
2024/03/04 00:48:50;;;;;;;68.00;33.40;;;9.80;99.90;;;;;;815278;176;26441;-78
2024/03/04 00:51:17;;;;;;;73.10;36.23;;;9.70;99.90;;;;;;815372;176;27082;-78
2024/03/04 00:53:44;;;;;;;81.07;40.47;;;9.70;99.90;;;;;;818295;174;26451;-78
2024/03/04 00:56:11;;;;;;;79.47;41.77;;;9.60;99.90;;;;;;832613;172;26631;-79
2024/03/04 00:58:38;;;;;;;83.33;42.73;;;9.60;99.90;;;;;;817396;175;26408;-77
2024/03/04 01:01:05;;;;;;;83.97;39.53;;;9.60;99.90;;;;;;818901;172;28252;-78
2024/03/04 01:03:31;;;;;;;85.20;43.00;;;9.70;99.90;;;;;;818842;174;26415;-77
2024/03/04 01:05:59;;;;;;;81.30;41.77;;;9.70;99.90;;;;;;819580;174;26469;-77
2024/03/04 01:08:24;;;;;;;82.80;36.80;;;9.70;99.90;;;;;;820691;174;26408;-78
2024/03/04 01:10:51;;;;;;;86.80;42.03;;;9.60;99.90;;;;;;818128;174;26955;-78
2024/03/04 01:13:19;;;;;;;87.43;43.17;;;9.60;99.90;;;;;;817838;174;26417;-78
2024/03/04 01:15:44;;;;;;;89.00;39.57;;;9.60;99.90;;;;;;817935;174;26968;-78
2024/03/04 01:18:10;;;;;;;90.60;42.87;;;9.50;99.90;;;;;;829205;169;26379;-79
2024/03/04 01:20:38;;;;;;;98.00;43.67;;;9.50;99.90;;;;;;828448;173;26994;-79
2024/03/04 01:23:05;;;;;;;84.40;39.77;;;9.50;99.90;;;;;;828570;173;26388;-78
2024/03/04 01:25:32;;;;;;;89.10;41.93;;;9.40;99.90;;;;;;817533;174;26391;-78
2024/03/04 01:27:58;;;;;;;83.80;41.50;;;9.50;99.90;;;;;;817647;174;26420;-78
2024/03/04 01:30:26;;;;;;;96.97;43.73;;;9.40;99.90;;;;;;818520;174;26400;-78
2024/03/04 01:32:52;;;;;;;91.43;42.33;;;9.40;99.90;;;;;;800337;177;26963;-79
2024/03/04 01:35:18;;;;;;;74.13;36.33;;;9.50;99.90;;;;;;834321;170;26771;-78
2024/03/04 01:37:46;;;;;;;83.30;40.63;;;9.50;99.90;;;;;;834269;172;26380;-78
2024/03/04 01:40:13;;;;;;;87.17;40.63;;;9.50;99.90;;;;;;818315;174;27000;-78
2024/03/04 01:42:38;;;;;;;79.77;38.67;;;9.40;99.90;;;;;;821137;173;27990;-77
2024/03/04 01:45:05;;;;;;;90.23;40.60;;;9.50;99.90;;;;;;830522;173;26399;-78
2024/03/04 01:47:32;;;;;;;82.73;38.50;;;9.40;99.90;;;;;;829257;173;26385;-77
2024/03/04 01:49:58;;;;;;;78.63;39.17;;;9.40;99.90;;;;;;815726;176;26461;-78
2024/03/04 01:52:25;;;;;;;82.87;38.43;;;9.40;99.90;;;;;;819241;174;26443;-78
2024/03/04 01:54:51;;;;;;;80.57;37.77;;;9.40;99.90;;;;;;829540;172;26406;-79
2024/03/04 01:57:18;;;;;;;85.10;41.03;;;9.40;99.90;;;;;;829586;168;26459;-79
2024/03/04 01:59:45;;;;;;;88.03;39.93;;;9.30;99.90;;;;;;829330;170;26444;-78
2024/03/04 02:02:12;;;;;;;98.47;42.17;;;9.30;99.90;;;;;;830395;172;27056;-79
2024/03/04 02:04:39;;;;;;;97.53;44.40;;;9.30;99.90;;;;;;814682;176;26475;-79
2024/03/04 02:07:05;;;;;;;91.03;42.70;;;9.30;99.90;;;;;;817557;174;27082;-78
2024/03/04 02:09:32;;;;;;;100.50;43.07;;;9.30;99.90;;;;;;817868;174;26507;-75
2024/03/04 02:11:58;;;;;;;106.03;44.37;;;9.30;99.90;;;;;;818916;174;27017;-78
2024/03/04 02:14:25;;;;;;;91.87;40.30;;;9.20;99.90;;;;;;813124;174;26476;-78
2024/03/04 02:16:52;;;;;;;106.13;46.97;;;9.20;99.90;;;;;;814654;175;27042;-78
2024/03/04 02:19:18;;;;;;;105.67;46.93;;;9.30;99.90;;;;;;814271;176;26447;-78
2024/03/04 02:21:46;;;;;;;100.73;46.37;;;9.30;99.90;;;;;;815622;176;26980;-79
2024/03/04 02:24:12;;;;;;;97.70;45.77;;;9.30;99.90;;;;;;815286;174;26970;-79
2024/03/04 02:26:39;;;;;;;87.47;42.87;;;9.30;99.90;;;;;;818165;174;26400;-79
2024/03/04 02:29:06;;;;;;;103.20;46.77;;;9.30;99.90;;;;;;817296;174;26430;-79
2024/03/04 02:31:32;;;;;;;94.07;44.20;;;9.30;99.90;;;;;;829247;173;26394;-78
2024/03/04 02:33:59;;;;;;;90.63;42.77;;;9.40;99.90;;;;;;829835;173;26386;-79
2024/03/04 02:36:25;;;;;;;97.47;44.63;;;9.30;99.90;;;;;;813364;174;26447;-79
2024/03/04 02:38:52;;;;;;;90.03;40.60;;;9.30;99.90;;;;;;815793;172;26446;-79
2024/03/04 02:41:19;;;;;;;111.20;48.77;;;9.30;99.90;;;;;;829317;173;26392;-79
2024/03/04 02:43:47;;;;;;;100.63;44.57;;;9.30;99.90;;;;;;829820;171;26386;-76
2024/03/04 02:46:14;;;;;;;98.53;46.03;;;9.20;99.90;;;;;;831484;172;26946;-79
2024/03/04 02:48:38;;;;;;;92.63;46.67;;;9.30;99.90;;;;;;830644;172;26404;-78
2024/03/04 02:51:05;;;;;;;96.63;46.47;;;9.30;99.90;;;;;;831087;172;26992;-79
2024/03/04 02:53:34;;;;;;;97.43;45.87;;;9.30;99.90;;;;;;810588;170;26488;-82
2024/03/04 02:56:03;;;;;;;85.50;41.20;;;9.20;99.90;;;;;;805466;177;26454;-83
2024/03/04 02:58:34;;;;;;;93.10;44.80;;;9.20;99.90;;;;;;782578;180;26446;-84
2024/03/04 03:01:05;;;;;;;92.20;45.30;;;9.20;99.90;;;;;;799621;179;26461;-81
2024/03/04 03:03:38;;;;;;;87.50;44.10;;;9.20;99.90;;;;;;798742;177;26708;-83
2024/03/04 03:06:15;;;;;;;81.20;42.03;;;9.20;99.90;;;;;;814509;176;26467;-83
2024/03/04 03:09:00;;;;;;;;;;;;;;;;;;;;;
2024/03/04 03:11:29;;;;;;;83.07;41.50;;;9.20;99.90;;;;;;803855;172;26455;-83
2024/03/04 03:14:09;;;;;;;70.17;37.70;;;9.20;99.90;;;;;;808741;177;26438;-82
2024/03/04 03:16:53;;;;;;;70.77;35.67;;;9.20;99.90;;;;;;801178;176;26426;-83
2024/03/04 03:19:26;;;;;;;70.20;35.90;;;9.20;99.90;;;;;;802523;177;26447;-81
2024/03/04 03:22:02;;;;;;;65.20;36.07;;;9.20;99.90;;;;;;807275;177;26428;-80
2024/03/04 03:24:30;;;;;;;67.67;37.43;;;9.10;99.90;;;;;;804417;177;26505;-84
2024/03/04 03:27:05;;;;;;;69.30;37.53;;;9.20;99.90;;;;;;799558;177;26497;-83
2024/03/04 03:29:47;;;;;;;69.77;38.93;;;9.20;99.90;;;;;;800522;178;26441;-83
2024/03/04 03:32:30;;;;;;;;;;;;;;;;;;;;;
2024/03/04 03:34:48;;;;;;;73.60;36.57;;;9.30;99.90;;;;;;780157;177;26505;-80
2024/03/04 03:37:15;;;;;;;71.80;36.37;;;9.20;99.90;;;;;;802893;179;26353;-81
2024/03/04 03:39:42;;;;;;;77.40;40.07;;;9.20;99.90;;;;;;808118;177;26429;-81
2024/03/04 03:42:11;;;;;;;71.83;39.33;;;9.20;99.90;;;;;;816155;176;26387;-81
2024/03/04 03:44:37;;;;;;;74.27;40.80;;;9.30;99.90;;;;;;815148;176;26384;-80
2024/03/04 03:47:03;;;;;;;80.60;41.20;;;9.20;99.90;;;;;;814390;175;26449;-80
2024/03/04 03:49:30;;;;;;;70.00;38.10;;;9.20;99.90;;;;;;814347;176;26388;-81
2024/03/04 03:51:57;;;;;;;69.93;39.90;;;9.20;99.90;;;;;;815680;176;26368;-81
2024/03/04 03:54:24;;;;;;;68.20;37.57;;;9.20;99.90;;;;;;814748;175;26403;-81
2024/03/04 03:56:51;;;;;;;80.73;41.03;;;9.20;99.90;;;;;;818598;174;26898;-81
2024/03/04 03:59:17;;;;;;;82.90;42.00;;;9.10;99.90;;;;;;805753;177;26592;-82
2024/03/04 04:01:44;;;;;;;79.90;41.90;;;9.20;99.90;;;;;;797681;180;26460;-81
2024/03/04 04:04:10;;;;;;;75.43;39.23;;;9.10;99.90;;;;;;796769;180;26982;-82
2024/03/04 04:06:37;;;;;;;67.83;39.93;;;9.10;99.90;;;;;;799021;179;26446;-81
2024/03/04 04:09:04;;;;;;;66.40;38.50;;;9.20;99.90;;;;;;817234;175;26395;-82
2024/03/04 04:11:30;;;;;;;66.50;32.00;;;9.10;99.90;;;;;;816338;176;26397;-81
2024/03/04 04:13:57;;;;;;;67.33;35.30;;;9.10;99.90;;;;;;814879;176;26921;-81
2024/03/04 04:16:24;;;;;;;59.37;36.37;;;9.10;99.90;;;;;;814855;175;26349;-82
2024/03/04 04:18:50;;;;;;;70.50;36.73;;;9.10;99.90;;;;;;818600;175;26403;-81
2024/03/04 04:21:17;;;;;;;71.50;39.73;;;9.20;99.90;;;;;;816892;176;26494;-81
2024/03/04 04:23:44;;;;;;;80.83;39.53;;;9.20;99.90;;;;;;816592;173;26408;-81
2024/03/04 04:26:11;;;;;;;80.00;38.53;;;9.10;99.90;;;;;;815922;176;26359;-86
2024/03/04 04:28:38;;;;;;;76.37;38.33;;;9.00;99.90;;;;;;815557;175;26690;-86
2024/03/04 04:31:04;;;;;;;79.17;41.33;;;9.00;99.90;;;;;;795487;176;26461;-87
2024/03/04 04:33:30;;;;;;;88.53;42.37;;;9.00;99.90;;;;;;808131;176;26377;-86
2024/03/04 04:35:58;;;;;;;79.70;43.03;;;9.00;99.90;;;;;;815214;175;26396;-86
2024/03/04 04:38:24;;;;;;;81.33;40.87;;;8.90;99.90;;;;;;796126;177;26443;-86
2024/03/04 04:40:50;;;;;;;74.73;36.60;;;9.00;99.90;;;;;;815856;176;26591;-86
2024/03/04 04:43:20;;;;;;;79.63;39.83;;;8.90;99.90;;;;;;816163;175;26369;-86
2024/03/04 04:45:44;;;;;;;83.90;42.00;;;8.90;99.90;;;;;;795632;179;26397;-85
2024/03/04 04:48:11;;;;;;;75.07;37.90;;;8.90;99.90;;;;;;797977;179;26467;-87
2024/03/04 04:50:38;;;;;;;75.57;39.93;;;8.90;99.90;;;;;;802722;179;26589;-86
2024/03/04 04:53:04;;;;;;;78.40;37.87;;;8.90;99.90;;;;;;816384;176;26385;-84
2024/03/04 04:55:31;;;;;;;85.97;40.90;;;8.90;99.90;;;;;;815439;174;26729;-85
2024/03/04 04:57:57;;;;;;;74.33;38.63;;;8.90;99.90;;;;;;814714;175;26391;-85
2024/03/04 05:00:24;;;;;;;79.40;40.53;;;9.00;99.90;;;;;;813172;176;26376;-85
2024/03/04 05:02:51;;;;;;;81.50;41.23;;;8.90;99.90;;;;;;815651;176;26389;-85
2024/03/04 05:05:18;;;;;;;84.33;40.17;;;8.90;99.90;;;;;;815058;175;26357;-85
2024/03/04 05:07:45;;;;;;;71.97;38.43;;;9.00;99.90;;;;;;792601;176;26442;-85
2024/03/04 05:10:11;;;;;;;70.13;36.30;;;9.00;99.90;;;;;;796156;179;26434;-86
2024/03/04 05:12:39;;;;;;;77.60;38.87;;;9.00;99.90;;;;;;799425;180;26415;-86
2024/03/04 05:15:07;;;;;;;69.50;37.37;;;9.10;99.90;;;;;;808514;177;26442;-87
2024/03/04 05:17:33;;;;;;;73.73;39.00;;;9.00;99.90;;;;;;816665;176;26383;-86
2024/03/04 05:20:00;;;;;;;72.40;40.20;;;9.10;99.90;;;;;;817843;175;26386;-86
2024/03/04 05:22:27;;;;;;;73.70;39.77;;;9.10;99.90;;;;;;797837;179;26439;-85
2024/03/04 05:24:55;;;;;;;78.47;38.63;;;9.10;99.90;;;;;;795758;180;26427;-85
2024/03/04 05:27:20;;;;;;;67.30;38.70;;;9.10;99.90;;;;;;802525;178;26408;-87
2024/03/04 05:29:48;;;;;;;64.37;34.73;;;9.10;99.90;;;;;;796364;177;27023;-83
2024/03/04 05:32:14;;;;;;;56.47;31.07;;;9.00;99.90;;;;;;816708;176;26387;-82
2024/03/04 05:34:41;;;;;;;55.73;30.07;;;9.00;99.90;;;;;;797766;178;26439;-82
2024/03/04 05:37:07;;;;;;;56.60;30.17;;;9.10;99.90;;;;;;793713;180;26457;-82
2024/03/04 05:39:34;;;;;;;49.30;28.27;;;9.10;99.90;;;;;;792275;176;26454;-83
2024/03/04 05:42:01;;;;;;;49.37;26.93;;;9.00;99.90;;;;;;800133;177;26484;-82
2024/03/04 05:44:28;;;;;;;50.60;25.27;;;9.00;99.90;;;;;;796051;178;26427;-84
2024/03/04 05:46:55;;;;;;;43.40;23.70;;;8.90;99.90;;;;;;803938;178;26430;-85
2024/03/04 05:49:23;;;;;;;47.50;25.07;;;8.90;99.90;;;;;;806479;178;26499;-85
2024/03/04 05:51:52;;;;;;;47.57;25.97;;;8.90;99.90;;;;;;796063;180;26376;-86
2024/03/04 05:54:17;;;;;;;43.53;23.37;;;8.90;99.90;;;;;;795962;177;26430;-86
2024/03/04 05:56:45;;;;;;;45.23;24.57;;;8.90;99.90;;;;;;789247;178;27053;-86
2024/03/04 05:59:11;;;;;;;46.13;22.80;;;8.90;99.90;;;;;;797369;178;26610;-84
2024/03/04 06:01:37;;;;;;;46.30;25.17;;;8.90;99.90;;;;;;796931;180;26375;-85
2024/03/04 06:04:04;;;;;;;43.90;26.33;;;8.80;99.90;;;;;;800695;176;26466;-86
2024/03/04 06:06:31;;;;;;;46.47;24.30;;;8.80;99.90;;;;;;814274;176;26381;-85
2024/03/04 06:08:58;;;;;;;45.20;23.57;;;8.80;99.90;;;;;;813968;176;26399;-85
2024/03/04 06:11:26;;;;;;;45.13;24.03;;;8.80;99.90;;;;;;797066;180;26384;-86
2024/03/04 06:13:51;;;;;;;44.50;23.03;;;8.80;99.90;;;;;;794982;178;26477;-85
2024/03/04 06:16:18;;;;;;;43.23;24.10;;;8.80;99.90;;;;;;804123;176;26436;-85
2024/03/04 06:18:45;;;;;;;38.23;22.27;;;8.80;99.90;;;;;;797659;174;26389;-86
2024/03/04 06:21:12;;;;;;;42.67;22.87;;;8.80;99.90;;;;;;805139;177;26434;-86
2024/03/04 06:23:38;;;;;;;41.90;22.80;;;8.80;99.90;;;;;;817508;173;26396;-85
2024/03/04 06:26:09;;;;;;;40.50;22.47;;;8.80;99.90;;;;;;805012;176;26431;-86
2024/03/04 06:28:34;;;;;;;41.83;21.80;;;8.90;99.90;;;;;;817566;176;26412;-84
2024/03/04 06:30:59;;;;;;;45.80;21.73;;;8.80;99.90;;;;;;797721;179;26428;-85
2024/03/04 06:33:25;;;;;;;39.37;20.43;;;8.80;99.90;;;;;;789334;179;26410;-84
2024/03/04 06:35:52;;;;;;;36.47;19.63;;;8.80;99.90;;;;;;818261;173;26411;-85
2024/03/04 06:38:19;;;;;;;32.87;19.20;;;8.80;99.90;;;;;;797689;178;26370;-85
2024/03/04 06:40:46;;;;;;;38.97;18.70;;;8.80;99.90;;;;;;801503;178;26403;-85
2024/03/04 06:43:13;;;;;;;32.83;17.33;;;8.80;99.90;;;;;;800143;176;26599;-86
2024/03/04 06:45:40;;;;;;;34.13;19.10;;;8.80;99.90;;;;;;789515;178;26476;-85
2024/03/04 06:48:07;;;;;;;29.73;17.70;;;8.80;99.90;;;;;;797671;178;27061;-85
2024/03/04 06:50:34;;;;;;;29.67;13.97;;;8.80;99.90;;;;;;817358;175;26388;-84
2024/03/04 06:53:01;;;;;;;30.23;18.07;;;8.80;99.90;;;;;;815573;175;26579;-85
2024/03/04 06:55:27;;;;;;;37.67;17.37;;;8.70;99.90;;;;;;816241;176;26460;-86
2024/03/04 06:57:54;;;;;;;29.77;15.33;;;8.80;99.90;;;;;;798891;178;26468;-84
2024/03/04 07:00:22;;;;;;;29.57;15.53;;;8.80;99.90;;;;;;795309;178;26435;-85
2024/03/04 07:02:49;;;;;;;27.90;15.20;;;8.80;99.90;;;;;;796166;178;26438;-86
2024/03/04 07:05:16;;;;;;;25.97;14.60;;;8.80;99.90;;;;;;803353;178;26434;-85
2024/03/04 07:07:43;;;;;;;26.83;14.83;;;8.80;99.90;;;;;;816000;173;26432;-85
2024/03/04 07:10:09;;;;;;;27.67;13.83;;;8.80;99.90;;;;;;797799;178;26471;-85
2024/03/04 07:12:37;;;;;;;23.37;13.43;;;8.80;99.90;;;;;;799744;178;26434;-84
2024/03/04 07:15:04;;;;;;;22.93;13.60;;;8.80;99.90;;;;;;795503;178;26428;-85
2024/03/04 07:17:31;;;;;;;26.00;14.30;;;8.80;99.90;;;;;;815771;175;26372;-84
2024/03/04 07:19:58;;;;;;;23.63;13.13;;;8.70;99.90;;;;;;814836;175;27196;-85
2024/03/04 07:22:24;;;;;;;23.23;13.20;;;8.70;99.90;;;;;;815703;173;26382;-86
2024/03/04 07:24:51;;;;;;;21.20;11.37;;;8.80;99.90;;;;;;816061;176;26389;-84
2024/03/04 07:27:18;;;;;;;24.67;14.27;;;8.80;99.90;;;;;;802798;178;26450;-87
2024/03/04 07:29:44;;;;;;;65.63;15.20;;;8.80;99.90;;;;;;798038;178;26376;-85
2024/03/04 07:32:11;;;;;;;23.20;12.83;;;8.90;99.90;;;;;;795685;177;28921;-86
2024/03/04 07:34:37;;;;;;;23.97;13.80;;;8.90;99.90;;;;;;797493;178;26460;-85
2024/03/04 07:37:04;;;;;;;28.57;14.53;;;8.80;99.90;;;;;;807991;176;26463;-84
2024/03/04 07:39:31;;;;;;;26.23;14.50;;;8.70;99.90;;;;;;807592;176;26466;-85
2024/03/04 07:41:57;;;;;;;26.67;14.63;;;8.70;99.90;;;;;;798132;176;26426;-85
2024/03/04 07:44:24;;;;;;;23.40;13.77;;;8.70;99.90;;;;;;804357;176;26447;-85
2024/03/04 07:46:51;;;;;;;20.57;13.53;;;8.80;99.90;;;;;;789677;177;26521;-86
2024/03/04 07:49:18;;;;;;;23.17;13.10;;;8.90;99.90;;;;;;789673;182;26452;-86
2024/03/04 07:51:45;;;;;;;20.37;12.07;;;8.90;99.90;;;;;;817733;173;26429;-85
2024/03/04 07:54:12;;;;;;;19.57;11.73;;;9.00;99.90;;;;;;816648;175;26372;-86
2024/03/04 07:56:39;;;;;;;22.30;12.23;;;9.00;99.90;;;;;;796479;179;26443;-85
2024/03/04 07:59:07;;;;;;;20.67;12.00;;;9.00;99.90;;;;;;804471;179;27983;-85
2024/03/04 08:01:34;;;;;;;22.07;11.70;;;9.00;99.90;;;;;;816087;175;26972;-86
2024/03/04 08:04:03;;;;;;;21.50;11.87;;;9.10;99.90;;;;;;798136;178;26458;-86
2024/03/04 08:06:32;;;;;;;21.67;11.73;;;9.10;99.90;;;;;;806349;178;26508;-86
2024/03/04 08:08:57;;;;;;;18.67;11.37;;;9.20;99.90;;;;;;803845;178;26444;-86
2024/03/04 08:11:24;;;;;;;21.07;11.67;;;9.30;99.90;;;;;;807641;177;26472;-86
2024/03/04 08:13:50;;;;;;;15.70;10.03;;;9.30;99.90;;;;;;796526;177;26438;-86
2024/03/04 08:16:17;;;;;;;18.80;12.73;;;9.10;99.90;;;;;;794688;178;26968;-85
2024/03/04 08:18:44;;;;;;;22.30;12.03;;;9.00;99.90;;;;;;797312;177;26456;-84
2024/03/04 08:21:15;;;;;;;21.73;12.53;;;9.00;99.90;;;;;;815456;176;26376;-85
2024/03/04 08:23:41;;;;;;;18.97;12.50;;;9.00;99.90;;;;;;815713;175;26425;-85
2024/03/04 08:26:07;;;;;;;21.40;12.73;;;9.00;99.90;;;;;;814859;176;26441;-85
2024/03/04 08:28:35;;;;;;;18.97;12.27;;;8.90;99.90;;;;;;815040;175;26437;-84
2024/03/04 08:31:04;;;;;;;17.80;11.53;;;9.00;99.90;;;;;;815455;175;26412;-87
2024/03/04 08:33:28;;;;;;;17.70;11.37;;;9.10;99.90;;;;;;797117;179;26413;-84
2024/03/04 08:35:55;;;;;;;22.37;12.93;;;9.20;99.90;;;;;;800466;179;26432;-85
2024/03/04 08:38:23;;;;;;;20.43;13.57;;;9.10;99.90;;;;;;815222;175;26571;-85
2024/03/04 08:40:49;;;;;;;20.67;12.57;;;9.10;99.90;;;;;;797871;180;26449;-85
2024/03/04 08:43:16;;;;;;;22.40;12.60;;;9.20;99.90;;;;;;797069;179;27000;-85
2024/03/04 08:45:43;;;;;;;22.17;12.30;;;9.20;99.90;;;;;;805439;178;26434;-85
2024/03/04 08:48:09;;;;;;;18.33;12.13;;;9.10;99.90;;;;;;817468;175;26405;-85
2024/03/04 08:50:36;;;;;;;18.40;11.43;;;9.20;99.90;;;;;;801236;178;26409;-86
2024/03/04 08:53:03;;;;;;;18.50;11.50;;;9.20;99.90;;;;;;795380;178;26360;-86
2024/03/04 08:58:43;;;;;;;19.40;11.80;;;9.30;99.90;;;;;;788230;177;27184;-78
2024/03/04 09:01:17;;;;;;;17.93;11.67;;;9.40;99.90;;;;;;795542;180;26458;-80
2024/03/04 09:03:46;;;;;;;21.33;12.60;;;9.30;99.90;;;;;;794643;180;27019;-79
2024/03/04 09:06:20;;;;;;;16.33;11.90;;;9.30;99.90;;;;;;803011;178;26470;-79
2024/03/04 09:08:49;;;;;;;20.20;12.23;;;9.40;99.90;;;;;;814658;176;26414;-79
2024/03/04 09:17:03;;;;;;;16.60;10.83;;;9.70;99.90;;;;;;752808;173;26642;-83
2024/03/04 09:19:29;;;;;;;17.10;10.50;;;9.80;99.90;;;;;;814148;174;26449;-82
2024/03/04 09:21:57;;;;;;;16.27;10.77;;;9.80;99.90;;;;;;801818;178;26425;-83
2024/03/04 09:24:24;;;;;;;19.43;11.30;;;9.90;99.90;;;;;;797636;177;26435;-82
2024/03/04 09:26:51;;;;;;;28.33;12.70;;;10.00;99.90;;;;;;795037;180;26431;-83
2024/03/04 09:29:17;;;;;;;18.73;11.77;;;10.00;99.90;;;;;;800025;178;26417;-84
2024/03/04 09:31:44;;;;;;;16.20;10.50;;;10.10;99.90;;;;;;803065;176;26457;-82
2024/03/04 09:34:10;;;;;;;16.73;10.40;;;10.20;99.90;;;;;;802970;177;26459;-83
2024/03/04 09:36:37;;;;;;;16.50;10.50;;;10.00;99.90;;;;;;801273;178;26408;-82
2024/03/04 09:39:05;;;;;;;16.30;11.17;;;9.90;99.90;;;;;;798325;178;26451;-83
2024/03/04 09:41:30;;;;;;;21.10;12.30;;;9.80;99.90;;;;;;803306;177;26435;-82
2024/03/04 09:43:57;;;;;;;19.07;12.17;;;9.90;99.90;;;;;;814806;177;26448;-82
2024/03/04 09:46:25;;;;;;;17.07;11.63;;;9.90;99.90;;;;;;814825;177;26437;-81
2024/03/04 09:48:53;;;;;;;15.30;10.67;;;9.90;99.90;;;;;;812567;176;26454;-85
2024/03/04 09:51:31;;;;;;;19.60;11.90;;;9.90;99.90;;;;;;810733;174;26461;-82
2024/03/04 09:53:59;;;;;;;19.63;12.10;;;9.90;99.90;;;;;;812409;174;26401;-83
2024/03/04 09:56:43;;;;;;;17.63;12.00;;;10.00;99.90;;;;;;818572;172;26525;-78
2024/03/04 10:04:42;;;;;;;16.47;11.33;;;10.00;99.90;;;;;;814632;175;26415;-79
2024/03/04 10:07:11;;;;;;;22.67;13.40;;;10.00;99.90;;;;;;810876;171;26401;-79
2024/03/04 10:15:12;;;;;;;27.40;15.33;;;10.10;99.90;;;;;;810953;171;26555;-82
2024/03/04 10:17:39;;;;;;;26.73;16.07;;;9.90;99.90;;;;;;817236;174;26450;-82
2024/03/04 10:20:10;;;;;;;30.60;18.97;;;9.90;99.90;;;;;;805762;178;26479;-83
2024/03/04 10:22:36;;;;;;;24.03;14.53;;;9.90;99.90;;;;;;808251;177;26441;-83
2024/03/04 10:25:04;;;;;;;24.83;13.17;;;9.90;99.90;;;;;;799709;177;26460;-83
2024/03/04 10:27:30;;;;;;;22.60;14.30;;;9.60;99.90;;;;;;814782;176;26424;-82
2024/03/04 10:30:13;;;;;;;26.87;14.40;;;9.60;99.90;;;;;;802240;179;26448;-82
2024/03/04 10:32:48;;;;;;;21.77;13.27;;;9.60;99.90;;;;;;818894;176;26400;-82
2024/03/04 10:35:15;;;;;;;24.80;14.60;;;9.60;99.90;;;;;;813770;176;26431;-83
2024/03/04 10:37:42;;;;;;;25.70;13.03;;;9.60;99.90;;;;;;801345;177;26557;-82
2024/03/04 10:40:10;;;;;;;23.90;13.40;;;9.60;99.90;;;;;;815109;173;26421;-83
2024/03/04 10:42:36;;;;;;;25.00;15.03;;;9.50;99.90;;;;;;811610;176;26957;-83
2024/03/04 10:45:04;;;;;;;26.27;16.10;;;9.40;99.90;;;;;;811803;174;27045;-83
2024/03/04 10:47:32;;;;;;;38.13;19.00;;;9.50;99.90;;;;;;810743;177;27223;-83
2024/03/04 10:49:58;;;;;;;38.10;20.57;;;9.40;99.90;;;;;;812055;174;26434;-82
2024/03/04 10:52:25;;;;;;;38.37;21.20;;;9.40;99.90;;;;;;811450;177;26441;-82
2024/03/04 10:54:52;;;;;;;28.57;17.20;;;9.40;99.90;;;;;;811805;177;26475;-82
2024/03/04 10:57:26;;;;;;;27.00;16.13;;;9.50;99.90;;;;;;812009;176;26418;-82
2024/03/04 10:59:58;;;;;;;30.80;20.03;;;9.50;99.90;;;;;;811306;177;26442;-83
2024/03/04 11:02:29;;;;;;;39.33;22.33;;;9.50;99.90;;;;;;810951;177;26428;-83
2024/03/04 11:04:58;;;;;;;35.53;22.90;;;9.50;99.90;;;;;;812951;173;26988;-82
2024/03/04 11:07:25;;;;;;;47.13;27.97;;;9.60;99.90;;;;;;813791;176;26432;-84
2024/03/04 11:09:52;;;;;;;42.30;26.00;;;9.50;99.90;;;;;;815936;176;26454;-82
2024/03/04 11:12:19;;;;;;;52.27;28.37;;;9.50;99.90;;;;;;814213;175;26448;-83
2024/03/04 11:14:45;;;;;;;39.37;22.83;;;9.50;99.90;;;;;;812083;176;26462;-83
2024/03/04 11:17:17;;;;;;;86.00;39.93;;;9.40;99.90;;;;;;811813;176;26433;-83
2024/03/04 11:19:47;;;;;;;48.00;28.83;;;9.40;99.90;;;;;;811945;176;26449;-83
2024/03/04 11:22:13;;;;;;;56.50;30.10;;;9.40;99.90;;;;;;810929;172;26514;-83
2024/03/04 11:24:40;;;;;;;81.97;41.60;;;9.40;99.90;;;;;;812055;176;26442;-82
2024/03/04 11:27:07;;;;;;;53.37;30.47;;;9.40;99.90;;;;;;812720;176;26410;-83
2024/03/04 11:29:34;;;;;;;38.03;23.17;;;9.40;99.90;;;;;;812025;176;26442;-83
2024/03/04 11:32:01;;;;;;;32.23;18.90;;;9.40;99.90;;;;;;798280;177;26443;-84
2024/03/04 11:34:28;;;;;;;31.13;17.87;;;9.40;99.90;;;;;;796895;177;26448;-83
2024/03/04 11:36:57;;;;;;;29.93;17.83;;;9.60;99.90;;;;;;800874;176;26478;-84
2024/03/04 11:39:24;;;;;;;34.17;20.27;;;9.60;99.90;;;;;;812096;175;26454;-84
2024/03/04 11:41:52;;;;;;;35.77;20.23;;;9.60;99.90;;;;;;812260;176;26925;-84
2024/03/04 11:44:28;;;;;;;30.00;19.20;;;9.50;99.90;;;;;;811081;176;26487;-82
2024/03/04 11:46:56;;;;;;;27.47;16.90;;;9.60;99.90;;;;;;811743;175;26458;-82
2024/03/04 11:49:29;;;;;;;78.73;40.13;;;9.60;99.90;;;;;;811023;176;27060;-82
2024/03/04 11:52:01;;;;;;;60.80;31.23;;;9.50;99.90;;;;;;810592;176;26959;-81
2024/03/04 11:54:40;;;;;;;37.00;20.43;;;9.40;99.90;;;;;;810875;176;28017;-84
2024/03/04 11:57:07;;;;;;;22.50;16.47;;;9.50;99.90;;;;;;810054;174;26457;-81
2024/03/04 11:59:35;;;;;;;27.83;15.93;;;9.40;99.90;;;;;;811226;175;26466;-82
2024/03/04 12:02:01;;;;;;;41.97;22.53;;;9.40;99.90;;;;;;811343;176;26418;-82
2024/03/04 12:04:29;;;;;;;61.87;32.53;;;9.50;99.90;;;;;;811681;177;26417;-82
2024/03/04 12:06:54;;;;;;;39.33;21.53;;;9.60;99.90;;;;;;813400;176;27027;-83
2024/03/04 12:09:25;;;;;;;30.17;16.73;;;9.70;99.90;;;;;;811178;177;26939;-82
2024/03/04 12:11:50;;;;;;;19.47;13.07;;;9.80;99.90;;;;;;811525;177;27181;-82
2024/03/04 12:14:17;;;;;;;16.93;11.23;;;9.70;99.90;;;;;;812497;174;26445;-81
2024/03/04 12:16:43;;;;;;;23.33;11.70;;;9.60;99.90;;;;;;812985;174;26456;-82
2024/03/04 12:19:10;;;;;;;16.03;10.10;;;9.70;99.90;;;;;;814177;176;26450;-82
2024/03/04 12:21:37;;;;;;;14.93;10.30;;;9.80;99.90;;;;;;812391;176;26422;-83
2024/03/04 12:24:03;;;;;;;20.77;11.80;;;9.90;99.90;;;;;;813340;175;26448;-82
2024/03/04 12:26:30;;;;;;;17.20;9.43;;;9.90;99.90;;;;;;813260;176;26425;-81
2024/03/04 12:29:00;;;;;;;15.63;10.57;;;9.90;99.90;;;;;;812942;176;26453;-82
2024/03/04 12:31:27;;;;;;;16.77;11.27;;;9.80;99.90;;;;;;812598;177;26455;-82
2024/03/04 12:33:54;;;;;;;17.83;11.00;;;9.80;99.90;;;;;;814910;175;26426;-81
2024/03/04 12:36:23;;;;;;;15.97;9.27;;;9.90;99.90;;;;;;811637;172;26461;-82
2024/03/04 12:38:51;;;;;;;18.97;10.40;;;9.80;99.90;;;;;;811236;172;27073;-81
2024/03/04 12:41:18;;;;;;;16.23;10.87;;;9.90;99.90;;;;;;811167;176;26466;-82
2024/03/04 12:43:48;;;;;;;17.47;8.47;;;10.00;99.90;;;;;;810756;176;26514;-82
2024/03/04 12:46:12;;;;;;;12.63;7.93;;;10.10;99.90;;;;;;797974;173;28081;-83
2024/03/04 12:48:39;;;;;;;12.33;7.77;;;10.10;99.90;;;;;;801196;176;26607;-83
2024/03/04 12:51:05;;;;;;;55.30;28.73;;;10.10;99.90;;;;;;810783;176;26460;-83
2024/03/04 12:53:32;;;;;;;16.20;9.90;;;10.20;99.90;;;;;;813307;176;26424;-82
2024/03/04 12:55:58;;;;;;;26.23;14.03;;;10.40;99.90;;;;;;811093;176;26427;-81
2024/03/04 12:58:25;;;;;;;11.90;8.00;;;10.40;99.90;;;;;;795960;179;26448;-82
2024/03/04 13:00:51;;;;;;;14.77;8.40;;;10.50;99.90;;;;;;797968;177;26994;-83